Time;durP1;ratioP1;P1;durP2;ratioP2;P2;SDS_P1;SDS_P2;PMS_P1;PMS_P2;Temp;Humidity;BMP_temperature;BMP_pressure;BME280_temperature;BME280_humidity;BME280_pressure;Samples;Min_cycle;Max_cycle;Signal;HPM_P1;HPM_P2
2021/06/11 00:00:50;;;;;;;10.28;6.12;;;;;;;16.26;100.00;100214.41;1737254;81;21583;-90
2021/06/11 00:03:17;;;;;;;5.90;5.35;;;;;;;16.26;100.00;100211.78;1719538;81;21029;-90
2021/06/11 00:05:44;;;;;;;5.90;5.30;;;;;;;16.25;100.00;100212.77;1719284;81;21067;-92
2021/06/11 00:08:11;;;;;;;6.47;5.83;;;;;;;16.21;100.00;100212.27;1720044;81;21488;-90
2021/06/11 00:10:39;;;;;;;11.45;6.25;;;;;;;16.22;100.00;100211.80;1715803;82;20922;-90
2021/06/11 00:13:07;;;;;;;6.65;5.70;;;;;;;16.23;100.00;100213.41;1670290;83;21119;-90
2021/06/11 00:15:34;;;;;;;12.20;5.65;;;;;;;16.23;100.00;100215.56;1684879;81;21083;-90
2021/06/11 00:18:04;;;;;;;7.28;6.58;;;;;;;16.23;100.00;100215.56;1685588;81;21079;-89
2021/06/11 00:20:31;;;;;;;7.15;5.87;;;;;;;16.24;100.00;100224.25;1684659;82;21028;-90
2021/06/11 00:22:59;;;;;;;7.25;6.15;;;;;;;16.21;100.00;100223.28;1724648;81;21081;-89
2021/06/11 00:25:26;;;;;;;9.28;6.28;;;;;;;16.14;100.00;100219.16;1730216;81;21152;-92
2021/06/11 00:28:01;;;;;;;6.45;5.85;;;;;;;16.13;100.00;100223.27;1715530;82;21053;-90
2021/06/11 00:30:30;;;;;;;6.58;6.05;;;;;;;16.13;100.00;100220.64;1722687;80;21010;-90
2021/06/11 00:32:59;;;;;;;9.58;5.90;;;;;;;16.12;100.00;100225.05;1692718;81;21022;-91
2021/06/11 00:35:26;;;;;;;7.22;5.20;;;;;;;16.13;100.00;100223.27;1715010;82;21633;-89
2021/06/11 00:37:54;;;;;;;5.97;5.33;;;;;;;16.13;100.00;100229.83;1716143;80;21155;-90
2021/06/11 00:40:21;;;;;;;6.10;5.37;;;;;;;16.10;100.00;100229.67;1716246;81;21148;-90
2021/06/11 00:42:48;;;;;;;9.68;5.35;;;;;;;16.07;100.00;100226.84;1740607;80;21555;-89
2021/06/11 00:45:15;;;;;;;8.53;5.95;;;;;;;16.08;100.00;100227.69;1726128;82;21029;-89
2021/06/11 00:47:45;;;;;;;13.05;6.85;;;;;;;16.09;100.00;100222.27;1740408;80;21017;-89
2021/06/11 00:50:16;;;;;;;11.80;6.33;;;;;;;16.07;100.00;100229.47;1725659;80;21578;-90
2021/06/11 00:52:43;;;;;;;6.87;6.05;;;;;;;15.93;100.00;100231.41;1724321;80;21638;-90
2021/06/11 00:55:11;;;;;;;9.78;6.42;;;;;;;15.86;100.00;100236.97;1722289;80;21069;-89
2021/06/11 00:57:39;;;;;;;10.85;6.42;;;;;;;15.80;100.00;100232.33;1722571;80;21119;-89
2021/06/11 01:00:07;;;;;;;11.30;6.40;;;;;;;15.82;100.00;100233.00;1723021;80;21104;-92
2021/06/11 01:02:34;;;;;;;8.45;6.22;;;;;;;15.85;100.00;100232.70;1714669;80;21889;-90
2021/06/11 01:05:02;;;;;;;7.80;5.90;;;;;;;15.86;100.00;100231.72;1719794;81;21176;-90
2021/06/11 01:07:30;;;;;;;9.28;5.75;;;;;;;15.87;100.00;100232.05;1723919;81;21061;-89
2021/06/11 01:09:57;;;;;;;7.45;6.08;;;;;;;15.88;100.00;100228.45;1722703;80;21096;-89
2021/06/11 01:12:25;;;;;;;9.80;6.35;;;;;;;15.86;100.00;100231.25;1720704;80;21332;-91
2021/06/11 01:14:53;;;;;;;9.60;6.33;;;;;;;15.83;100.00;100223.67;1724245;80;21215;-90
2021/06/11 01:17:21;;;;;;;12.82;6.25;;;;;;;15.82;100.00;100222.00;1739814;80;21567;-90
2021/06/11 01:19:50;;;;;;;7.70;6.90;;;;;;;15.83;100.00;100222.81;1719247;80;21127;-90
2021/06/11 01:22:34;;;;;;;11.05;6.92;;;;;;;15.86;100.00;100219.44;1742216;80;21048;-90
2021/06/11 01:25:12;;;;;;;8.08;6.90;;;;;;;15.87;100.00;100224.18;1711829;80;21025;-90
2021/06/11 01:27:42;;;;;;;11.05;6.17;;;;;;;15.76;100.00;100231.33;1740524;80;21148;-91
2021/06/11 01:30:18;;;;;;;7.33;6.45;;;;;;;15.71;100.00;100242.80;1719418;81;21275;-91
2021/06/11 01:32:47;;;;;;;8.40;5.85;;;;;;;15.75;100.00;100246.73;1717602;82;20994;-91
2021/06/11 01:35:22;;;;;;;10.98;6.58;;;;;;;15.75;100.00;100244.62;1723155;80;21002;-90
2021/06/11 01:37:54;;;;;;;14.87;6.25;;;;;;;15.71;100.00;100241.96;1750121;80;21553;-90
2021/06/11 01:40:22;;;;;;;7.25;5.97;;;;;;;15.71;100.00;100244.11;1715545;79;21185;-91
2021/06/11 01:42:51;;;;;;;11.68;6.60;;;;;;;15.74;100.00;100244.28;1727371;80;21146;-90
2021/06/11 01:45:19;;;;;;;8.03;6.50;;;;;;;15.73;100.00;100249.20;1727974;81;21657;-91
2021/06/11 01:47:52;;;;;;;7.45;5.90;;;;;;;15.75;100.00;100253.30;1722784;79;21099;-90
2021/06/11 01:50:31;;;;;;;10.18;5.85;;;;;;;15.81;100.00;100258.92;1727211;81;21075;-90
2021/06/11 01:53:03;;;;;;;8.83;6.53;;;;;;;15.84;100.00;100256.83;1715675;81;21033;-90
2021/06/11 01:55:34;;;;;;;8.73;6.95;;;;;;;15.88;100.00;100254.20;1714398;82;21046;-90
2021/06/11 01:58:03;;;;;;;7.00;6.30;;;;;;;15.93;100.00;100254.56;1711919;81;21137;-90
2021/06/11 02:00:31;;;;;;;9.20;7.00;;;;;;;15.95;100.00;100253.09;1719779;81;21097;-90
2021/06/11 02:02:59;;;;;;;7.70;6.75;;;;;;;15.90;100.00;100254.06;1735016;82;21548;-89
2021/06/11 02:05:27;;;;;;;10.82;7.72;;;;;;;15.76;100.00;100254.14;1717622;81;21650;-91
2021/06/11 02:07:56;;;;;;;9.68;7.17;;;;;;;15.68;100.00;100256.73;1735995;82;21575;-91
2021/06/11 02:10:24;;;;;;;11.00;7.22;;;;;;;15.62;100.00;100255.05;1695620;83;21504;-90
2021/06/11 02:12:53;;;;;;;10.78;7.67;;;;;;;15.64;100.00;100261.47;1685664;83;21077;-91
2021/06/11 02:15:21;;;;;;;11.25;6.97;;;;;;;15.72;100.00;100256.73;1720997;81;21109;-92
2021/06/11 02:17:51;;;;;;;8.70;7.42;;;;;;;15.84;100.00;100255.52;1689988;83;21845;-92
2021/06/11 02:20:23;;;;;;;8.10;7.00;;;;;;;15.95;100.00;100258.81;1686262;83;21645;-90
2021/06/11 02:22:50;;;;;;;;;;;;;;;16.00;100.00;100262.61;1698082;83;21058;-91
2021/06/11 02:25:21;;;;;;;13.13;8.00;;;;;;;16.01;100.00;100264.26;1692265;82;20216;-90
2021/06/11 02:27:48;;;;;;;;;;;;;;;16.09;100.00;100266.10;1688784;82;21098;-91
2021/06/11 02:30:18;;;;;;;10.72;6.85;;;;;;;16.17;100.00;100262.66;1684162;82;20863;-90
2021/06/11 02:32:46;;;;;;;8.30;7.47;;;;;;;16.23;100.00;100264.16;1683937;83;21029;-89
2021/06/11 02:35:18;;;;;;;13.68;7.58;;;;;;;16.31;100.00;100263.34;1695395;82;21697;-90
2021/06/11 02:37:46;;;;;;;16.85;6.97;;;;;;;16.36;100.00;100263.70;1697959;83;21016;-91
2021/06/11 02:40:15;;;;;;;10.18;6.90;;;;;;;16.37;100.00;100259.25;1700309;82;21036;-90
2021/06/11 02:42:53;;;;;;;6.83;6.20;;;;;;;16.38;100.00;100260.39;1687302;83;21171;-91
2021/06/11 02:45:28;;;;;;;12.15;6.35;;;;;;;16.35;100.00;100260.73;1705171;83;21125;-90
2021/06/11 02:48:35;;;;;;;13.22;6.35;;;;;;;16.38;100.00;100262.21;1684534;83;21055;-90
2021/06/11 02:51:10;;;;;;;10.75;6.28;;;;;;;16.43;100.00;100265.16;1686009;83;21128;-89
2021/06/11 02:53:42;;;;;;;7.60;5.70;;;;;;;16.51;100.00;100269.62;1683162;83;21132;-90
2021/06/11 02:56:30;;;;;;;12.30;6.45;;;;;;;16.53;100.00;100263.21;1720466;82;21286;-89
2021/06/11 02:59:01;;;;;;;11.55;6.85;;;;;;;16.53;100.00;100261.90;1688408;83;21119;-90
2021/06/11 03:01:35;;;;;;;6.87;6.20;;;;;;;16.59;100.00;100265.69;1651823;85;21138;-90
2021/06/11 03:04:04;;;;;;;11.25;7.42;;;;;;;16.67;100.00;100267.48;1714122;81;21115;-90
2021/06/11 03:06:32;;;;;;;12.65;7.30;;;;;;;16.72;100.00;100269.95;1722526;80;21099;-90
2021/06/11 03:09:01;;;;;;;9.68;6.70;;;;;;;16.75;100.00;100264.86;1733710;80;21401;-89
2021/06/11 03:11:30;;;;;;;8.85;6.15;;;;;;;16.77;100.00;100259.45;1754403;79;21147;-90
2021/06/11 03:13:59;;;;;;;10.25;6.40;;;;;;;16.78;100.00;100272.93;1730763;81;21170;-91
2021/06/11 03:16:28;;;;;;;9.53;5.85;;;;;;;16.81;100.00;100269.95;1723316;79;21005;-90
2021/06/11 03:19:09;;;;;;;16.05;5.80;;;;;;;16.86;100.00;100263.22;1716510;81;21009;-89
2021/06/11 03:21:42;;;;;;;11.70;6.33;;;;;;;16.91;100.00;100265.84;1724498;80;21168;-90
2021/06/11 03:24:32;;;;;;;7.80;5.75;;;;;;;16.94;100.00;100260.29;1715957;81;20954;-90
2021/06/11 03:27:14;;;;;;;8.00;6.75;;;;;;;16.99;100.00;100262.75;1712933;81;21013;-89
2021/06/11 03:29:53;;;;;;;6.78;6.10;;;;;;;17.03;100.00;100264.05;1685828;83;21147;-90
2021/06/11 03:32:28;;;;;;;11.30;7.00;;;;;;;17.10;100.00;100267.35;1687319;83;21075;-90
2021/06/11 03:35:02;;;;;;;7.17;5.97;;;;;;;17.15;100.00;100270.30;1725949;81;21112;-90
2021/06/11 03:37:32;;;;;;;11.20;6.58;;;;;;;17.24;100.00;100273.24;1723441;81;21531;-90
2021/06/11 03:40:04;;;;;;;12.67;6.73;;;;;;;17.31;100.00;100269.42;1726671;80;21051;-89
2021/06/11 03:42:32;;;;;;;9.90;6.80;;;;;;;17.40;100.00;100265.80;1720068;81;21314;-91
2021/06/11 03:45:01;;;;;;;7.70;6.40;;;;;;;17.48;100.00;100272.86;1727148;80;22085;-91
2021/06/11 03:47:33;;;;;;;12.63;7.33;;;;;;;17.56;100.00;100267.56;1732047;79;21133;-89
2021/06/11 03:50:03;;;;;;;12.45;7.40;;;;;;;17.66;100.00;100267.36;1725343;79;21090;-90
2021/06/11 03:52:34;;;;;;;15.75;7.35;;;;;;;17.73;100.00;100267.00;1727414;81;21000;-89
2021/06/11 03:55:21;;;;;;;14.83;8.20;;;;;;;17.78;100.00;100266.02;1729690;80;21194;-89
2021/06/11 03:58:04;;;;;;;9.93;7.95;;;;;;;17.89;100.00;100266.60;1694526;83;21133;-90
2021/06/11 04:00:33;;;;;;;8.50;7.70;;;;;;;18.00;100.00;100272.01;1714831;81;21085;-90
2021/06/11 04:03:00;;;;;;;8.98;8.03;;;;;;;18.05;100.00;100271.02;1715188;81;20982;-89
2021/06/11 04:05:28;;;;;;;10.53;7.78;;;;;;;18.10;100.00;100266.03;1710635;82;21626;-90
2021/06/11 04:07:57;;;;;;;12.85;8.60;;;;;;;18.16;100.00;100265.34;1701755;81;21042;-89
2021/06/11 04:10:55;;;;;;;17.45;8.85;;;;;;;18.27;100.00;100261.48;1715868;81;21392;-89
2021/06/11 04:13:34;;;;;;;10.98;8.88;;;;;;;18.38;100.00;100262.92;1724556;81;21096;-91
2021/06/11 04:16:03;;;;;;;11.55;9.35;;;;;;;18.47;100.00;100261.03;1729652;80;21611;-89
2021/06/11 04:18:34;;;;;;;15.08;9.98;;;;;;;18.54;100.00;100260.65;1732203;82;20926;-91
2021/06/11 04:21:02;;;;;;;13.22;9.05;;;;;;;18.63;100.00;100262.73;1719157;81;20949;-91
2021/06/11 04:23:36;;;;;;;11.57;9.45;;;;;;;18.71;100.00;100262.64;1717850;80;20949;-91
2021/06/11 04:26:06;;;;;;;11.10;9.08;;;;;;;18.78;100.00;100264.92;1693751;81;21840;-90
2021/06/11 04:28:35;;;;;;;13.65;9.78;;;;;;;18.89;100.00;100272.91;1713777;80;21081;-90
2021/06/11 04:31:03;;;;;;;17.85;11.10;;;;;;;19.02;100.00;100268.37;1717033;80;21692;-91
2021/06/11 04:33:31;;;;;;;24.10;11.48;;;;;;;19.13;100.00;100270.55;1715061;81;21027;-89
2021/06/11 04:35:59;;;;;;;15.38;11.12;;;;;;;19.22;100.00;100271.30;1729458;80;20877;-90
2021/06/11 04:38:26;;;;;;;29.85;11.80;;;;;;;19.31;100.00;100266.75;1712512;82;21078;-90
2021/06/11 04:40:53;;;;;;;14.28;11.78;;;;;;;19.36;100.00;100266.53;1717166;82;20914;-90
2021/06/11 04:43:24;;;;;;;16.37;11.25;;;;;;;19.41;100.00;100269.11;1715378;82;21023;-91
2021/06/11 04:45:54;;;;;;;15.40;11.33;;;;;;;19.44;100.00;100269.56;1757631;79;21028;-88
2021/06/11 04:48:20;;;;;;;17.27;12.20;;;;;;;19.49;100.00;100273.82;1727023;80;21044;-89
2021/06/11 04:50:48;;;;;;;20.97;14.68;;;;;;;19.52;100.00;100270.80;1719429;80;22210;-89
2021/06/11 04:53:15;;;;;;;20.43;14.00;;;;;;;19.57;100.00;100272.09;1738013;80;20978;-90
2021/06/11 04:55:42;;;;;;;18.60;13.68;;;;;;;19.56;100.00;100267.28;1699753;82;20951;-90
2021/06/11 04:58:10;;;;;;;21.77;15.15;;;;;;;19.60;100.00;100264.61;1656979;84;20973;-90
2021/06/11 05:00:37;;;;;;;21.77;15.23;;;;;;;19.67;100.00;100260.72;1660188;84;21200;-89
2021/06/11 05:03:07;;;;;;;22.48;15.08;;;;;;;19.76;100.00;100258.81;1651657;83;21092;-90
2021/06/11 05:05:36;;;;;;;21.07;15.00;;;;;;;19.83;100.00;100253.91;1748065;80;20848;-90
2021/06/11 05:08:04;;;;;;;25.85;16.25;;;;;;;19.91;100.00;100261.47;1716118;82;21430;-90
2021/06/11 05:10:31;;;;;;;24.32;16.35;;;;;;;19.95;100.00;100257.44;1738066;80;20890;-89
2021/06/11 05:12:58;;;;;;;21.23;16.42;;;;;;;20.01;100.00;100256.69;1748748;80;20999;-90
2021/06/11 05:15:25;;;;;;;22.75;16.20;;;;;;;20.05;100.00;100263.73;1661586;82;21838;-90
2021/06/11 05:17:52;;;;;;;18.30;15.05;;;;;;;20.07;100.00;100264.37;1701217;82;21007;-90
2021/06/11 05:20:19;;;;;;;24.85;15.78;;;;;;;20.13;100.00;100260.98;1713309;81;21446;-89
2021/06/11 05:22:46;;;;;;;18.80;15.55;;;;;;;20.17;100.00;100253.81;1721655;82;21131;-90
2021/06/11 05:25:14;;;;;;;20.75;15.98;;;;;;;20.28;100.00;100260.95;1750318;80;20945;-91
2021/06/11 05:27:41;;;;;;;21.68;15.55;;;;;;;20.36;100.00;100252.89;1747528;79;21075;-90
2021/06/11 05:30:09;;;;;;;21.20;14.40;;;;;;;20.46;100.00;100258.69;1690960;83;20986;-90
2021/06/11 05:32:36;;;;;;;15.95;13.00;;;;;;;20.55;100.00;100261.21;1712208;82;21025;-90
2021/06/11 05:35:04;;;;;;;22.30;14.43;;;;;;;20.59;100.00;100265.91;1726864;81;21456;-90
2021/06/11 05:37:31;;;;;;;18.57;13.98;;;;;;;20.63;100.00;100263.20;1648662;85;21502;-90
2021/06/11 05:39:58;;;;;;;21.95;14.45;;;;;;;20.67;100.00;100266.28;1709741;82;21118;-89
2021/06/11 05:42:26;;;;;;;22.32;13.05;;;;;;;20.70;100.00;100269.89;1705732;82;21401;-90
2021/06/11 05:44:53;;;;;;;18.23;13.30;;;;;;;20.73;100.00;100270.84;1688833;83;21207;-90
2021/06/11 05:47:20;;;;;;;21.25;13.50;;;;;;;20.76;100.00;100274.44;1697598;83;20968;-90
2021/06/11 05:49:49;;;;;;;19.73;13.30;;;;;;;20.80;100.00;100276.20;1725454;81;21468;-90
2021/06/11 05:52:16;;;;;;;21.20;13.32;;;;;;;20.85;100.00;100278.27;1688554;83;21101;-91
2021/06/11 05:54:46;;;;;;;20.30;14.73;;;;;;;20.90;100.00;100270.57;1725601;81;20925;-90
2021/06/11 05:57:13;;;;;;;32.33;16.80;;;;;;;20.94;100.00;100275.80;1701813;82;20961;-90
2021/06/11 05:59:46;;;;;;;27.15;16.12;;;;;;;20.97;100.00;100284.66;1702153;82;21465;-91
2021/06/11 06:02:16;;;;;;;25.02;15.10;;;;;;;20.97;100.00;100279.38;1720520;81;20941;-90
2021/06/11 06:04:43;;;;;;;19.57;14.75;;;;;;;20.97;100.00;100278.05;1721131;81;21120;-89
2021/06/11 06:07:10;;;;;;;26.35;14.50;;;;;;;20.97;100.00;100279.38;1713070;81;20898;-91
2021/06/11 06:09:37;;;;;;;20.82;15.10;;;;;;;20.99;100.00;100276.55;1753726;80;21096;-89
2021/06/11 06:12:05;;;;;;;21.15;14.85;;;;;;;21.04;100.00;100280.23;1738576;80;20949;-90
2021/06/11 06:14:33;;;;;;;18.65;12.70;;;;;;;21.09;100.00;100283.14;1759704;79;20998;-89
2021/06/11 06:17:00;;;;;;;25.00;13.85;;;;;;;21.17;100.00;100277.39;1738901;80;21123;-89
2021/06/11 06:19:27;;;;;;;17.40;13.95;;;;;;;21.22;100.00;100275.80;1750349;81;21049;-90
2021/06/11 06:21:54;;;;;;;25.68;14.83;;;;;;;21.28;100.00;100277.66;1724183;81;21473;-88
2021/06/11 06:24:21;;;;;;;17.00;12.47;;;;;;;21.35;100.00;100283.50;1719531;80;20945;-89
2021/06/11 06:26:49;;;;;;;12.93;10.80;;;;;;;21.41;100.00;100283.55;1738191;80;21469;-88
2021/06/11 06:29:16;;;;;;;17.55;10.43;;;;;;;21.44;100.00;100281.02;1755170;80;21131;-89
2021/06/11 06:31:43;;;;;;;11.85;9.23;;;;;;;21.41;100.00;100280.06;1689689;81;20878;-89
2021/06/11 06:34:10;;;;;;;11.75;9.68;;;;;;;21.43;100.00;100282.02;1721670;80;21400;-89
2021/06/11 06:36:37;;;;;;;13.08;9.95;;;;;;;21.48;100.00;100279.59;1715094;81;21493;-88
2021/06/11 06:39:08;;;;;;;12.95;9.45;;;;;;;21.51;100.00;100285.84;1722091;81;21093;-90
2021/06/11 06:41:35;;;;;;;11.28;8.33;;;;;;;21.55;100.00;100280.96;1723572;80;21038;-90
2021/06/11 06:44:04;;;;;;;11.05;8.73;;;;;;;21.58;100.00;100288.56;1760467;79;21008;-90
2021/06/11 06:46:33;;;;;;;11.48;9.43;;;;;;;21.69;100.00;100287.19;1728922;80;21449;-89
2021/06/11 06:49:02;;;;;;;10.13;8.45;;;;;;;21.79;100.00;100290.78;1760653;79;21447;-89
2021/06/11 06:51:34;;;;;;;11.03;8.53;;;;;;;21.92;100.00;100296.12;1729439;81;20933;-90
2021/06/11 06:54:02;;;;;;;10.08;8.50;;;;;;;22.05;100.00;100297.52;1731105;80;21083;-89
2021/06/11 06:56:30;;;;;;;9.80;8.80;;;;;;;22.18;100.00;100293.27;1731080;80;20909;-89
2021/06/11 06:58:59;;;;;;;14.50;9.95;;;;;;;22.32;100.00;100300.23;1726618;79;21043;-90
2021/06/11 07:01:42;;;;;;;;;;;;;;;;;;;;;
2021/06/11 07:04:17;;;;;;;;;;;;;;;;;;;;;
2021/06/11 07:06:48;;;;;;;8.90;7.75;;;;;;;22.70;100.00;100301.55;1657315;84;21397;-90
2021/06/11 07:09:16;;;;;;;9.48;7.62;;;;;;;22.75;100.00;100294.30;1602001;86;21536;-89
2021/06/11 07:11:43;;;;;;;9.15;7.35;;;;;;;22.69;100.00;100294.11;1708870;81;21564;-89
2021/06/11 07:14:16;;;;;;;9.60;7.20;;;;;;;22.63;100.00;100301.56;1737977;81;20934;-89
2021/06/11 07:16:48;;;;;;;9.73;7.55;;;;;;;22.71;100.00;100294.41;1602062;88;21142;-89
2021/06/11 07:19:21;;;;;;;7.92;6.92;;;;;;;22.81;100.00;100296.97;1602233;87;21465;-90
2021/06/11 07:22:02;;;;;;;8.10;6.35;;;;;;;22.95;100.00;100294.30;1578122;88;20931;-90
2021/06/11 07:24:39;;;;;;;7.35;5.87;;;;;;;23.07;100.00;100295.82;1544026;90;21030;-91
2021/06/11 07:27:35;;;;;;;;;;;;;;;;;;;;;
2021/06/11 08:02:25;;;;;;;;;;;;;;;;;;;;;
2021/06/11 08:10:57;;;;;;;;;;;;;;;;;;;;;
2021/06/11 08:16:57;;;;;;;;;;;;;;;;;;;;;
2021/06/11 08:19:29;;;;;;;7.78;6.55;;;;;;;23.33;100.00;100260.98;1265600;109;21265;-90
2021/06/11 08:26:16;;;;;;;;;;;;;;;;;;;;;
2021/06/11 08:28:56;;;;;;;7.40;6.67;;;;;;;23.96;100.00;100267.52;1253291;110;21697;-91
2021/06/11 08:31:54;;;;;;;;;;;;;;;;;;;;;
2021/06/11 08:38:07;;;;;;;;;;;;;;;;;;;;;
2021/06/11 08:49:02;;;;;;;;;;;;;;;;;;;;;
2021/06/11 12:18:49;;;;;;;;;;;;;;;;;;;;;
2021/06/11 13:39:21;;;;;;;5.87;3.47;;;;;;;20.82;100.00;100236.31;1719582;82;21023;-91
2021/06/11 14:27:25;;;;;;;;;;;;;;;;;;;;;
2021/06/11 14:30:53;;;;;;;;;;;;;;;;;;;;;
2021/06/11 18:12:06;;;;;;;;;;;;;;;;;;;;;
2021/06/11 18:17:49;;;;;;;;;;;;;;;;;;;;;
2021/06/11 20:10:40;;;;;;;8.75;5.72;;;;;;;17.75;100.00;100361.14;1369590;99;21261;-92
2021/06/11 20:12:55;;;;;;;;;;;;;;;;;;;;;
2021/06/11 20:18:18;;;;;;;;;;;;;;;;;;;;;
2021/06/11 20:20:52;;;;;;;;;;;;;;;;;;;;;
2021/06/11 20:25:57;;;;;;;11.12;5.78;;;;;;;17.41;100.00;100367.95;1511807;92;21136;-93
2021/06/11 20:28:27;;;;;;;15.65;6.55;;;;;;;17.39;100.00;100369.92;1566763;89;21424;-92
2021/06/11 20:30:57;;;;;;;6.75;6.00;;;;;;;17.32;100.00;100373.70;1576213;89;21669;-90
2021/06/11 20:33:27;;;;;;;8.33;6.25;;;;;;;17.21;100.00;100370.10;1576512;89;21116;-90
2021/06/11 20:35:59;;;;;;;9.78;6.08;;;;;;;17.10;100.00;100372.57;1625785;85;21072;-91
2021/06/11 20:38:32;;;;;;;9.28;6.45;;;;;;;16.91;100.00;100370.55;1626385;86;21505;-90
2021/06/11 20:41:03;;;;;;;12.20;7.28;;;;;;;16.80;100.00;100365.59;1638080;86;21092;-90
2021/06/11 20:43:47;;;;;;;;;;;;;;;;;;;;;
2021/06/11 20:46:10;;;;;;;11.25;7.37;;;;;;;16.72;100.00;100372.48;1614213;86;21581;-91
2021/06/11 20:48:40;;;;;;;;;;;;;;;16.70;100.00;100361.80;1617224;87;21177;-91
2021/06/11 20:51:18;;;;;;;10.23;7.25;;;;;;;16.71;100.00;100362.14;1642269;86;20150;-91
2021/06/11 20:53:47;;;;;;;7.95;7.05;;;;;;;16.77;100.00;100363.30;1568496;89;21538;-90
2021/06/11 20:56:34;;;;;;;;;;;;;;;;;;;;;
2021/06/11 20:59:12;;;;;;;;;;;;;;;;;;;;;
2021/06/11 21:01:39;;;;;;;;;;;;;;;;;;;;;
2021/06/11 21:04:11;;;;;;;;;;;;;;;;;;;;;
2021/06/11 21:06:36;;;;;;;8.45;7.53;;;;;;;17.01;100.00;100366.47;1563378;89;21405;-91
2021/06/11 21:09:07;;;;;;;10.72;7.42;;;;;;;17.03;100.00;100369.26;1552331;90;21178;-91
2021/06/11 21:11:54;;;;;;;;;;;;;;;;;;;;;
2021/06/11 21:14:24;;;;;;;;;;;;;;;;;;;;;
2021/06/11 21:16:58;;;;;;;;;;;;;;;;;;;;;
2021/06/11 21:19:34;;;;;;;;;;;;;;;;;;;;;
2021/06/11 21:22:13;;;;;;;;;;;;;;;;;;;;;
2021/06/11 21:24:51;;;;;;;;;;;;;;;;;;;;;
2021/06/11 21:27:27;;;;;;;;;;;;;;;;;;;;;
2021/06/11 21:30:03;;;;;;;;;;;;;;;;;;;;;
2021/06/11 21:32:42;;;;;;;9.03;8.13;;;;;;;16.54;100.00;100383.13;1440101;97;21142;-91
2021/06/11 21:35:09;;;;;;;11.35;8.35;;;;;;;16.51;100.00;100378.18;1374805;99;21268;-90
2021/06/11 21:37:50;;;;;;;;;;;;;;;;;;;;;
2021/06/11 21:40:26;;;;;;;;;;;;;;;;;;;;;
2021/06/11 21:43:00;;;;;;;;;;;;;;;;;;;;;
2021/06/11 21:45:24;;;;;;;18.05;10.28;;;;;;;16.05;100.00;100406.58;1411904;99;21219;-90
2021/06/11 21:47:55;;;;;;;12.78;9.70;;;;;;;15.93;100.00;100402.08;1395435;100;21295;-90
2021/06/11 21:50:34;;;;;;;;;;;;;;;;;;;;;
2021/06/11 21:53:05;;;;;;;;;;;;;;;;;;;;;
2021/06/11 21:55:41;;;;;;;;;;;;;;;;;;;;;
2021/06/11 21:58:11;;;;;;;10.70;8.65;;;;;;;16.04;100.00;100403.14;1366930;100;21143;-90
2021/06/11 22:00:47;;;;;;;14.83;8.43;;;;;;;16.02;100.00;100397.21;1326879;103;21159;-91
2021/06/11 22:03:14;;;;;;;11.60;8.98;;;;;;;16.01;100.00;100397.38;1358526;103;21170;-92
2021/06/11 22:06:01;;;;;;;;;;;;;;;;;;;;;
2021/06/11 22:08:19;;;;;;;10.25;8.20;;;;;;;16.02;100.00;100388.02;1344457;102;21710;-90
2021/06/11 22:10:47;;;;;;;11.60;9.13;;;;;;;16.03;100.00;100393.61;1397253;96;21386;-91
2021/06/11 22:13:18;;;;;;;13.95;9.48;;;;;;;16.05;100.00;100400.01;1547862;88;21633;-92
2021/06/11 22:18:26;;;;;;;11.48;8.83;;;;;;;16.06;100.00;100404.28;1602181;87;21165;-91
2021/06/11 22:21:07;;;;;;;11.12;9.20;;;;;;;16.05;100.00;100404.78;1598616;87;21157;-92
2021/06/11 22:23:44;;;;;;;;;;;;;;;;;;;;;
2021/06/11 22:26:09;;;;;;;14.23;9.10;;;;;;;16.09;100.00;100406.11;1531298;91;21129;-91
2021/06/11 22:28:53;;;;;;;;;;;;;;;;;;;;;
2021/06/11 22:31:31;;;;;;;19.00;9.88;;;;;;;16.11;100.00;100412.51;1452600;97;21162;-90
2021/06/11 22:34:10;;;;;;;;;;;;;;;;;;;;;
2021/06/11 22:36:47;;;;;;;;;;;;;;;;;;;;;
2021/06/11 22:39:38;;;;;;;;;;;;;;;;;;;;;
2021/06/11 22:42:23;;;;;;;;;;;;;;;;;;;;;
2021/06/11 22:45:00;;;;;;;;;;;;;;;;;;;;;
2021/06/11 22:47:30;;;;;;;;;;;;;;;;;;;;;
2021/06/11 22:49:54;;;;;;;12.83;8.53;;;;;;;16.06;100.00;100430.55;1274179;109;21203;-90
2021/06/11 22:52:32;;;;;;;;;;;;;;;;;;;;;
2021/06/11 22:55:01;;;;;;;10.25;8.75;;;;;;;16.06;100.00;100435.80;1268693;110;21170;-89
2021/06/11 22:57:42;;;;;;;;;;;;;;;;;;;;;
2021/06/11 23:00:19;;;;;;;;;;;;;;;;;;;;;
2021/06/11 23:02:43;;;;;;;9.55;7.87;;;;;;;15.88;100.00;100432.73;1276270;110;21750;-90
2021/06/11 23:05:20;;;;;;;8.85;7.60;;;;;;;15.84;100.00;100432.73;1265663;111;21309;-91
2021/06/11 23:08:00;;;;;;;;;;;;;;;;;;;;;
2021/06/11 23:10:34;;;;;;;;;;;;;;;;;;;;;
2021/06/11 23:13:07;;;;;;;;;;;;;;;;;;;;;
2021/06/11 23:15:30;;;;;;;8.30;7.17;;;;;;;15.78;100.00;100421.00;1332704;105;21222;-90
2021/06/11 23:18:08;;;;;;;;;;;;;;;;;;;;;
2021/06/11 23:20:31;;;;;;;11.60;8.37;;;;;;;15.76;100.00;100422.14;1407735;97;21653;-91
2021/06/11 23:23:02;;;;;;;9.30;8.03;;;;;;;15.77;100.00;100418.04;1496934;93;21618;-91
2021/06/11 23:25:33;;;;;;;9.03;8.10;;;;;;;15.76;100.00;100420.33;1595861;84;21084;-90
2021/06/11 23:28:20;;;;;;;;;;;;;;;;;;;;;
2021/06/11 23:33:27;;;;;;;;;;;;;;;;;;;;;
2021/06/11 23:35:58;;;;;;;;;;;;;;;;;;;;;
2021/06/11 23:38:25;;;;;;;14.40;12.18;;;;;;;15.74;100.00;100421.46;1448235;96;21119;-90
2021/06/11 23:41:10;;;;;;;;;;;;;;;;;;;;;
2021/06/11 23:50:19;;;;;;;;;;;;;;;;;;;;;
2021/06/11 23:56:26;;;;;;;;;;;;;;;;;;;;;
